createdAt,value
2023-01-10T00:04:00.231Z,9.50
2023-01-10T00:10:02.011Z,8.73
2023-01-10T00:16:08.996Z,8.00
2023-01-10T00:22:10.903Z,8.10
2023-01-10T00:28:12.675Z,8.02
2023-01-10T00:34:15.034Z,7.28
2023-01-10T00:40:16.914Z,6.45
2023-01-10T00:46:19.822Z,6.55
2023-01-10T00:52:21.637Z,6.57
2023-01-10T00:58:23.448Z,5.47
2023-01-10T01:04:25.216Z,4.95
2023-01-10T01:10:26.967Z,4.55
2023-01-10T01:16:28.800Z,3.80
2023-01-10T01:22:30.548Z,2.72
2023-01-10T01:28:32.355Z,2.40
2023-01-10T01:34:34.226Z,2.35
2023-01-10T01:40:38.107Z,1.75
2023-01-10T01:46:40.745Z,1.87
2023-01-10T01:52:42.633Z,2.10
2023-01-10T01:59:01.287Z,2.55
2023-01-10T02:05:13.132Z,2.08
2023-01-10T02:11:15.060Z,2.35
2023-01-10T02:17:16.942Z,2.80
2023-01-10T02:23:36.996Z,2.55
2023-01-10T02:30:01.413Z,2.90
2023-01-10T02:36:12.564Z,3.50
2023-01-10T02:42:24.029Z,3.70
2023-01-10T02:48:25.893Z,4.18
2023-01-10T02:54:30.656Z,4.28
2023-01-10T03:06:51.504Z,6.00
2023-01-10T03:13:24.113Z,7.53
2023-01-10T03:19:31.410Z,6.97
2023-01-10T03:25:37.167Z,7.18
2023-01-10T03:31:52.584Z,7.03
2023-01-10T03:37:58.307Z,7.18
2023-01-10T03:44:25.970Z,7.15
2023-01-10T03:50:29.204Z,6.70
2023-01-10T03:56:31.018Z,6.43
2023-01-10T04:02:32.974Z,6.63
2023-01-10T04:08:34.708Z,6.47
2023-01-10T04:14:36.569Z,6.68
2023-01-10T04:20:38.351Z,6.60
2023-01-10T04:26:40.099Z,5.63
2023-01-10T04:32:41.801Z,5.90
2023-01-10T04:38:43.542Z,6.38
2023-01-10T04:44:45.244Z,6.18
2023-01-10T04:50:51.325Z,6.60
2023-01-10T04:56:53.116Z,6.57
2023-01-10T05:02:58.300Z,6.40
2023-01-10T05:09:00.192Z,5.90
2023-01-10T05:15:01.975Z,6.90
2023-01-10T05:21:07.217Z,6.72
2023-01-10T05:27:09.302Z,5.95
2023-01-10T05:33:11.030Z,6.60
2023-01-10T05:39:14.070Z,6.22
2023-01-10T05:45:15.832Z,6.63
2023-01-10T05:51:17.580Z,6.13
2023-01-10T05:57:19.337Z,6.55
2023-01-10T06:03:21.227Z,6.40
2023-01-10T06:09:23.053Z,6.75
2023-01-10T06:15:24.776Z,6.93
2023-01-10T06:21:26.502Z,7.10
2023-01-10T06:27:28.284Z,6.53
2023-01-10T06:33:29.987Z,7.60
2023-01-10T06:39:31.836Z,7.50
2023-01-10T06:45:33.750Z,7.40
2023-01-10T06:51:35.429Z,7.22
2023-01-10T06:57:38.450Z,7.93
2023-01-10T07:03:40.890Z,8.32
2023-01-10T07:09:42.758Z,9.02
2023-01-10T07:15:44.563Z,9.48
2023-01-10T07:21:46.981Z,10.10
2023-01-10T07:27:48.757Z,9.77
2023-01-10T07:33:53.643Z,11.60
2023-01-10T07:39:56.255Z,10.60
2023-01-10T07:46:02.457Z,12.68
2023-01-10T07:52:05.134Z,11.73
2023-01-10T07:58:08.104Z,12.98
2023-01-10T08:04:09.917Z,13.35
2023-01-10T08:10:11.904Z,13.57
2023-01-10T08:16:15.380Z,14.45
2023-01-10T08:22:17.142Z,13.80
2023-01-10T08:28:18.977Z,14.55
2023-01-10T08:34:20.892Z,14.32
2023-01-10T08:40:22.662Z,13.65
2023-01-10T08:46:24.526Z,12.00
2023-01-10T08:52:26.404Z,12.50
2023-01-10T08:58:28.310Z,12.70
2023-01-10T09:04:32.831Z,12.50
2023-01-10T09:16:36.462Z,13.82
2023-01-10T09:22:38.994Z,11.23
2023-01-10T09:28:40.882Z,10.90
2023-01-10T09:34:42.739Z,11.65
2023-01-10T09:40:59.294Z,12.20
2023-01-10T09:47:22.599Z,10.73
2023-01-10T09:53:27.960Z,11.50
2023-01-10T10:05:38.570Z,11.80
2023-01-10T10:11:53.617Z,10.93
2023-01-10T10:18:17.039Z,10.38
2023-01-10T10:24:18.786Z,10.27
2023-01-10T10:30:23.403Z,12.55
2023-01-10T10:36:58.967Z,11.00
2023-01-10T10:43:13.360Z,11.43
2023-01-10T10:49:32.459Z,9.45
2023-01-10T10:55:38.745Z,11.50
2023-01-10T11:01:43.624Z,9.93
2023-01-10T11:07:45.686Z,9.07
2023-01-10T11:13:54.158Z,9.10
2023-01-10T11:20:16.587Z,8.43
2023-01-10T11:26:40.174Z,7.75
2023-01-10T11:32:57.585Z,8.30
2023-01-10T11:39:04.405Z,8.43
2023-01-10T11:45:32.986Z,8.70
2023-01-10T11:51:45.822Z,9.30
2023-01-10T11:57:59.937Z,8.55
2023-01-10T12:04:02.053Z,8.57
2023-01-10T12:10:04.176Z,7.78
2023-01-10T12:16:33.212Z,6.78
2023-01-10T12:22:45.391Z,6.25
2023-01-10T12:29:01.083Z,7.60
2023-01-10T12:35:09.701Z,6.97
2023-01-10T12:41:35.930Z,5.90
2023-01-10T12:47:46.315Z,5.47
2023-01-10T12:53:55.521Z,6.07
2023-01-10T13:00:01.585Z,5.85
2023-01-10T13:06:04.019Z,5.05
2023-01-10T13:12:34.125Z,5.40
2023-01-10T13:18:35.853Z,4.88
2023-01-10T13:24:37.660Z,4.72
2023-01-10T13:30:40.964Z,4.57
2023-01-10T13:36:48.197Z,4.22
2023-01-10T13:43:29.338Z,3.90
2023-01-10T13:49:43.239Z,3.50
2023-01-10T13:55:53.581Z,3.63
2023-01-10T14:02:18.176Z,3.83
2023-01-10T14:08:22.490Z,4.28
2023-01-10T14:14:33.934Z,4.07
2023-01-10T14:20:36.869Z,4.47
2023-01-10T14:26:40.548Z,4.18
2023-01-10T14:32:43.856Z,3.90
2023-01-10T14:38:46.964Z,3.63
2023-01-10T14:44:57.650Z,3.53
2023-01-10T14:51:21.004Z,2.72
2023-01-10T14:57:24.013Z,2.70
2023-01-10T15:03:25.992Z,3.03
2023-01-10T15:09:29.607Z,2.95
2023-01-10T15:15:34.604Z,2.25
2023-01-10T15:21:43.332Z,2.60
2023-01-10T15:27:47.462Z,2.40
2023-01-10T15:33:56.816Z,2.58
2023-01-10T15:39:58.720Z,2.42
2023-01-10T15:46:02.455Z,2.50
2023-01-10T15:52:04.267Z,2.75
2023-01-10T15:58:28.516Z,2.45
2023-01-10T16:04:34.727Z,2.30
2023-01-10T16:10:37.571Z,2.00
2023-01-10T16:16:39.541Z,2.28
2023-01-10T16:22:42.185Z,2.10
2023-01-10T16:28:45.134Z,2.60
2023-01-10T16:34:47.842Z,2.50
2023-01-10T16:40:51.575Z,2.00
2023-01-10T16:46:54.241Z,2.35
2023-01-10T16:52:56.031Z,2.33
2023-01-10T16:58:58.191Z,2.22
2023-01-10T17:04:59.974Z,1.83
2023-01-10T17:11:06.920Z,1.92
2023-01-10T17:17:11.020Z,2.42
2023-01-10T17:23:15.077Z,2.28
2023-01-10T17:29:16.779Z,2.27
2023-01-10T17:35:18.998Z,2.08
2023-01-10T17:41:20.790Z,2.05
2023-01-10T17:47:22.694Z,1.90
2023-01-10T17:53:25.007Z,2.00
2023-01-10T17:59:27.113Z,2.05
2023-01-10T18:05:29.015Z,2.05
2023-01-10T18:11:32.910Z,1.88
2023-01-10T18:17:34.669Z,2.40
2023-01-10T18:23:36.421Z,3.88
2023-01-10T18:29:38.168Z,1.85
2023-01-10T18:35:39.882Z,1.90
2023-01-10T18:41:41.603Z,1.95
2023-01-10T18:47:43.314Z,1.75
2023-01-10T18:53:45.898Z,2.08
2023-01-10T18:59:47.673Z,2.00
2023-01-10T19:05:49.710Z,2.00
2023-01-10T19:11:51.510Z,2.35
2023-01-10T19:17:55.445Z,1.92
2023-01-10T19:24:01.152Z,2.47
2023-01-10T19:30:03.097Z,2.45
2023-01-10T19:36:06.718Z,2.40
2023-01-10T19:42:08.579Z,2.45
2023-01-10T19:48:10.330Z,3.40
2023-01-10T19:54:12.113Z,2.63
2023-01-10T20:00:14.212Z,2.65
2023-01-10T20:06:19.983Z,2.78
2023-01-10T20:12:21.813Z,2.63
2023-01-10T20:18:23.598Z,2.85
2023-01-10T20:24:25.374Z,2.88
2023-01-10T20:30:27.127Z,2.55
2023-01-10T20:36:29.188Z,4.15
2023-01-10T20:42:32.500Z,2.80
2023-01-10T20:48:34.541Z,2.83
2023-01-10T20:54:38.256Z,2.67
2023-01-10T21:00:40.390Z,2.67
2023-01-10T21:06:42.342Z,2.60
2023-01-10T21:12:44.078Z,3.33
2023-01-10T21:18:46.484Z,2.58
2023-01-10T21:24:48.596Z,2.50
2023-01-10T21:30:52.736Z,2.88
2023-01-10T21:36:54.634Z,2.08
2023-01-10T21:42:56.365Z,2.22
2023-01-10T21:48:58.276Z,2.40
2023-01-10T21:55:00.143Z,1.70
2023-01-10T22:01:02.019Z,1.70
2023-01-10T22:07:03.841Z,1.55
2023-01-10T22:13:05.639Z,1.25
2023-01-10T22:19:07.518Z,1.48
2023-01-10T22:25:09.490Z,1.35
2023-01-10T22:31:11.455Z,1.20
2023-01-10T22:37:13.279Z,1.70
2023-01-10T22:43:15.022Z,1.10
2023-01-10T22:49:16.907Z,1.00
2023-01-10T22:55:18.873Z,1.30
2023-01-10T23:01:22.387Z,1.48
2023-01-10T23:07:24.283Z,0.90
2023-01-10T23:13:26.231Z,0.80
2023-01-10T23:19:28.063Z,0.80
2023-01-10T23:25:29.837Z,0.57
2023-01-10T23:31:32.010Z,0.40
2023-01-10T23:37:33.956Z,0.57
2023-01-10T23:43:35.698Z,0.40
2023-01-10T23:49:37.417Z,0.60
2023-01-10T23:55:39.138Z,0.70
